Time;durP1;ratioP1;P1;durP2;ratioP2;P2;SDS_P1;SDS_P2;PMS_P1;PMS_P2;Temp;Humidity;BMP_temperature;BMP_pressure;BME280_temperature;BME280_humidity;BME280_pressure;Samples;Min_cycle;Max_cycle;Signal;HPM_P1;HPM_P2
2022/01/20 00:01:58;;;;;;;0.85;0.50;;;4.00;99.90;;;;;;5077478;28;20070;-86
2022/01/20 00:03:55;;;;;;;1.17;0.70;;;3.90;99.90;;;;;;5083633;28;20090;-86
2022/01/20 00:28:11;;;;;;;1.23;0.63;;;3.80;99.90;;;;;;5113642;27;20110;-86
2022/01/20 00:30:56;;;;;;;4.35;0.82;;;3.80;99.90;;;;;;5096767;28;20047;-86
2022/01/20 00:33:35;;;;;;;0.70;0.70;;;3.80;99.90;;;;;;5096809;28;20043;-86
2022/01/20 00:38:31;;;;;;;5.18;1.35;;;3.90;99.90;;;;;;5114246;28;20446;-85
2022/01/20 00:40:57;;;;;;;3.13;1.15;;;3.90;99.90;;;;;;5114336;28;20038;-85
2022/01/20 00:43:23;;;;;;;5.47;1.02;;;3.90;99.90;;;;;;5097539;28;20035;-86
2022/01/20 00:45:49;;;;;;;1.27;0.50;;;3.90;99.90;;;;;;5097230;28;20039;-85
2022/01/20 00:48:15;;;;;;;0.57;0.45;;;3.90;99.90;;;;;;5096895;28;20445;-86
2022/01/20 00:50:40;;;;;;;0.90;0.43;;;3.90;99.90;;;;;;5080556;28;20125;-86
2022/01/20 00:53:06;;;;;;;2.70;1.27;;;3.90;99.90;;;;;;5097387;28;20499;-86
2022/01/20 00:55:32;;;;;;;3.10;0.70;;;3.90;99.90;;;;;;5097388;28;20039;-86
2022/01/20 00:57:58;;;;;;;5.50;1.80;;;3.90;99.90;;;;;;5114037;28;20036;-85
2022/01/20 01:00:24;;;;;;;4.70;1.20;;;3.90;99.90;;;;;;5099150;27;20399;-85
2022/01/20 01:02:49;;;;;;;7.00;1.13;;;4.00;99.90;;;;;;5118122;27;20126;-86
2022/01/20 01:05:15;;;;;;;6.22;1.40;;;4.10;99.90;;;;;;5100956;27;20119;-85
2022/01/20 01:07:46;;;;;;;2.25;0.93;;;4.10;99.90;;;;;;5100321;27;20461;-86
2022/01/20 01:10:14;;;;;;;4.38;0.95;;;4.10;99.90;;;;;;5100948;27;20539;-86
2022/01/20 01:13:14;;;;;;;3.80;1.20;;;4.10;99.90;;;;;;5100589;27;20039;-85
2022/01/20 01:15:45;;;;;;;4.07;1.20;;;4.20;99.90;;;;;;5100917;27;20565;-85
2022/01/20 01:23:42;;;;;;;4.13;0.82;;;4.30;99.90;;;;;;5118060;27;20131;-86
2022/01/20 01:26:16;;;;;;;1.73;0.55;;;4.20;99.90;;;;;;5100510;27;20035;-86
2022/01/20 01:28:42;;;;;;;5.25;1.88;;;4.10;99.90;;;;;;5118140;27;20066;-86
2022/01/20 01:31:29;;;;;;;4.20;1.90;;;4.00;99.90;;;;;;5100604;27;20035;-85
2022/01/20 01:34:02;;;;;;;1.13;0.50;;;4.00;99.90;;;;;;5118041;27;20043;-86
2022/01/20 01:36:33;;;;;;;1.10;0.63;;;3.80;99.90;;;;;;5100314;27;20031;-86
2022/01/20 01:38:58;;;;;;;2.75;0.50;;;3.80;99.90;;;;;;5117701;27;20480;-86
2022/01/20 01:41:30;;;;;;;5.35;0.60;;;3.70;99.90;;;;;;5100057;27;20055;-86
2022/01/20 01:43:57;;;;;;;0.52;0.50;;;3.80;99.90;;;;;;5100062;27;20039;-86
2022/01/20 01:46:23;;;;;;;5.00;1.00;;;3.70;99.90;;;;;;5099806;27;20509;-86
2022/01/20 01:48:49;;;;;;;2.15;0.70;;;3.80;99.90;;;;;;5099597;27;20070;-86
2022/01/20 01:51:18;;;;;;;0.50;0.50;;;3.80;99.90;;;;;;5099926;27;20121;-86
2022/01/20 01:53:43;;;;;;;1.55;0.80;;;3.80;99.90;;;;;;5100255;27;20164;-86
2022/01/20 01:56:09;;;;;;;1.27;0.85;;;3.80;99.90;;;;;;5100166;27;20460;-86
2022/01/20 01:58:35;;;;;;;0.50;0.50;;;3.90;99.90;;;;;;5117431;27;20038;-86
2022/01/20 02:01:01;;;;;;;3.60;0.55;;;3.80;99.90;;;;;;5100276;27;20426;-86
2022/01/20 02:03:28;;;;;;;0.40;0.40;;;3.80;99.90;;;;;;5117436;27;20395;-85
2022/01/20 02:19:12;;;;;;;2.17;0.70;;;4.00;99.90;;;;;;5116377;27;20043;-86
2022/01/20 02:21:49;;;;;;;9.43;1.30;;;4.00;99.90;;;;;;5116240;27;20031;-86
2022/01/20 02:24:16;;;;;;;2.50;0.55;;;4.10;99.90;;;;;;5099275;27;20463;-86
2022/01/20 02:26:41;;;;;;;1.75;0.63;;;3.90;99.90;;;;;;5098844;27;20065;-87
2022/01/20 02:29:07;;;;;;;1.65;0.70;;;3.90;99.90;;;;;;5116512;27;20039;-86
2022/01/20 02:31:33;;;;;;;1.20;0.95;;;3.90;99.90;;;;;;5099402;27;20070;-86
2022/01/20 02:33:59;;;;;;;1.85;0.88;;;3.90;99.90;;;;;;5099538;27;20039;-86
2022/01/20 02:36:25;;;;;;;1.60;0.60;;;3.90;99.90;;;;;;5099248;27;20035;-86
2022/01/20 02:39:11;;;;;;;0.82;0.55;;;3.90;99.90;;;;;;5099636;27;20490;-86
2022/01/20 02:47:12;;;;;;;2.30;0.90;;;3.80;99.90;;;;;;5116147;27;20047;-86
2022/01/20 02:49:38;;;;;;;2.50;0.50;;;3.80;99.90;;;;;;5099156;27;20039;-86
2022/01/20 02:52:04;;;;;;;2.40;0.70;;;3.90;99.90;;;;;;5098961;27;20526;-86
2022/01/20 02:54:29;;;;;;;1.10;0.60;;;3.80;99.90;;;;;;5099171;27;20114;-86
2022/01/20 02:56:55;;;;;;;0.70;0.50;;;3.90;99.90;;;;;;5098779;27;20053;-86
2022/01/20 02:59:20;;;;;;;0.95;0.50;;;3.80;99.90;;;;;;5115568;27;20039;-86
2022/01/20 03:02:17;;;;;;;3.55;0.90;;;3.80;99.90;;;;;;5115504;27;20053;-86
2022/01/20 03:04:43;;;;;;;10.13;2.30;;;3.80;99.90;;;;;;5099901;27;20062;-86
2022/01/20 03:07:08;;;;;;;8.02;1.60;;;3.80;99.90;;;;;;5116452;27;20039;-86
2022/01/20 03:09:34;;;;;;;6.72;1.63;;;3.80;99.90;;;;;;5116825;27;20047;-86
2022/01/20 03:12:00;;;;;;;4.65;1.80;;;3.70;99.90;;;;;;5099665;27;20100;-86
2022/01/20 03:14:26;;;;;;;9.45;1.90;;;3.60;99.90;;;;;;5116944;27;20076;-86
2022/01/20 03:16:51;;;;;;;4.82;0.73;;;3.50;99.90;;;;;;5099391;27;20035;-86
2022/01/20 03:19:17;;;;;;;6.05;1.20;;;3.40;99.90;;;;;;5099969;27;20549;-86
2022/01/20 03:21:43;;;;;;;1.95;0.80;;;3.40;99.90;;;;;;5116585;27;20062;-86
2022/01/20 03:24:10;;;;;;;6.22;0.88;;;3.80;99.90;;;;;;5099895;27;20035;-86
2022/01/20 03:26:37;;;;;;;7.32;1.20;;;3.40;99.90;;;;;;5099388;27;20134;-86
2022/01/20 03:29:04;;;;;;;4.65;1.20;;;3.40;99.90;;;;;;5116633;27;20046;-86
2022/01/20 03:31:31;;;;;;;4.47;1.23;;;3.40;99.90;;;;;;5099417;27;20039;-86
2022/01/20 03:33:58;;;;;;;10.30;1.58;;;3.40;99.90;;;;;;5116551;27;20039;-86
2022/01/20 03:36:23;;;;;;;5.80;0.88;;;3.40;99.90;;;;;;5099120;27;20160;-86
2022/01/20 03:38:49;;;;;;;9.95;1.25;;;3.40;99.90;;;;;;5099587;27;20087;-86
2022/01/20 03:41:15;;;;;;;9.85;1.73;;;3.30;99.90;;;;;;5099409;27;20079;-86
2022/01/20 03:43:41;;;;;;;6.53;0.80;;;3.40;99.90;;;;;;5099701;27;20121;-86
2022/01/20 03:46:12;;;;;;;5.95;1.52;;;3.40;99.90;;;;;;5115808;27;20119;-87
2022/01/20 03:48:49;;;;;;;0.80;0.80;;;3.40;99.90;;;;;;5116475;27;20035;-86
2022/01/20 03:51:15;;;;;;;1.63;0.77;;;3.40;99.90;;;;;;5099297;27;20050;-86
2022/01/20 03:53:40;;;;;;;5.43;1.63;;;3.40;99.90;;;;;;5099570;27;20031;-86
2022/01/20 03:56:07;;;;;;;10.73;1.83;;;3.30;99.90;;;;;;5098800;27;20032;-86
2022/01/20 03:58:32;;;;;;;18.13;2.58;;;3.30;99.90;;;;;;5099165;27;20052;-86
2022/01/20 04:00:58;;;;;;;4.78;1.35;;;3.30;99.90;;;;;;5099094;27;20104;-86
2022/01/20 04:03:25;;;;;;;15.20;3.22;;;3.20;99.90;;;;;;5099137;27;20034;-86
2022/01/20 04:05:56;;;;;;;8.05;2.05;;;3.40;99.90;;;;;;5099488;27;20031;-86
2022/01/20 04:08:24;;;;;;;24.38;3.10;;;3.20;99.90;;;;;;5098613;27;20125;-86
2022/01/20 04:10:49;;;;;;;33.85;3.85;;;3.30;99.90;;;;;;5098979;27;20129;-86
2022/01/20 04:13:17;;;;;;;31.75;5.13;;;3.30;99.90;;;;;;5115820;27;20157;-85
2022/01/20 04:15:42;;;;;;;27.88;2.75;;;3.70;99.90;;;;;;5115823;27;20088;-86
2022/01/20 04:18:11;;;;;;;14.77;3.38;;;3.30;99.90;;;;;;5098362;27;20031;-86
2022/01/20 04:20:37;;;;;;;15.73;2.70;;;3.20;99.90;;;;;;5099172;27;20579;-86
2022/01/20 04:23:02;;;;;;;6.45;1.75;;;3.30;99.90;;;;;;5098849;28;20156;-86
2022/01/20 04:25:28;;;;;;;12.43;1.60;;;3.30;99.90;;;;;;5098776;27;20148;-86
2022/01/20 04:27:54;;;;;;;9.95;1.98;;;3.30;99.90;;;;;;5098322;27;20424;-85
2022/01/20 04:30:19;;;;;;;18.98;2.35;;;3.40;99.90;;;;;;5098570;27;20039;-86
2022/01/20 04:32:45;;;;;;;19.38;3.10;;;3.30;99.90;;;;;;5098780;28;20035;-85
2022/01/20 04:35:11;;;;;;;8.52;2.28;;;3.40;99.90;;;;;;5098210;28;20039;-86
2022/01/20 04:37:37;;;;;;;7.43;1.85;;;3.30;99.90;;;;;;5115257;28;20495;-86
2022/01/20 04:40:03;;;;;;;4.40;1.40;;;3.30;99.90;;;;;;5098583;28;20031;-86
2022/01/20 04:42:32;;;;;;;9.95;2.33;;;3.20;99.90;;;;;;5098648;28;20035;-86
2022/01/20 04:45:03;;;;;;;15.18;2.17;;;3.20;99.90;;;;;;5098505;28;20039;-86
2022/01/20 04:58:10;;;;;;;7.88;2.00;;;3.10;99.90;;;;;;5115003;28;20039;-86
2022/01/20 05:00:35;;;;;;;17.30;2.20;;;3.10;99.90;;;;;;5098375;28;20689;-85
2022/01/20 05:03:24;;;;;;;10.32;2.00;;;3.00;99.90;;;;;;5090612;28;20130;-86
2022/01/20 05:05:50;;;;;;;20.60;1.85;;;2.90;99.90;;;;;;5099010;27;20045;-86
2022/01/20 05:08:22;;;;;;;6.07;1.60;;;2.80;99.90;;;;;;5100211;28;20039;-85
2022/01/20 05:10:47;;;;;;;2.83;1.58;;;2.80;99.90;;;;;;5097699;28;20031;-86
2022/01/20 05:13:22;;;;;;;13.50;2.50;;;2.80;99.90;;;;;;5097700;28;20092;-86
2022/01/20 05:15:48;;;;;;;10.13;2.90;;;3.00;99.90;;;;;;5097553;28;20036;-86
2022/01/20 05:18:14;;;;;;;11.85;3.03;;;2.90;99.90;;;;;;5114104;28;20037;-86
2022/01/20 05:20:40;;;;;;;7.30;1.02;;;2.70;99.90;;;;;;5097536;28;20038;-85
2022/01/20 05:23:05;;;;;;;7.57;1.40;;;2.70;99.90;;;;;;5097712;28;20560;-86
2022/01/20 05:25:31;;;;;;;9.48;1.50;;;2.60;99.90;;;;;;5097546;28;20081;-86
2022/01/20 05:27:57;;;;;;;3.08;1.27;;;2.60;99.90;;;;;;5097095;28;20039;-86
2022/01/20 05:30:23;;;;;;;4.88;0.93;;;2.50;99.90;;;;;;5105592;27;20114;-86
2022/01/20 05:32:48;;;;;;;5.28;1.35;;;2.50;99.90;;;;;;5097568;28;20509;-86
2022/01/20 05:35:14;;;;;;;6.43;1.75;;;2.40;99.90;;;;;;5097664;28;20070;-85
2022/01/20 05:37:39;;;;;;;10.35;1.80;;;2.30;99.90;;;;;;5097066;28;20403;-86
2022/01/20 05:40:06;;;;;;;7.00;1.33;;;2.20;99.90;;;;;;5097747;28;20042;-85
2022/01/20 05:42:31;;;;;;;5.25;1.13;;;2.10;99.90;;;;;;5097253;28;20100;-85
2022/01/20 05:44:57;;;;;;;6.15;1.20;;;2.10;99.90;;;;;;5097394;28;20043;-85
2022/01/20 05:47:28;;;;;;;6.85;1.48;;;1.90;99.90;;;;;;5098410;27;20035;-86
2022/01/20 05:49:53;;;;;;;12.18;1.88;;;1.80;99.90;;;;;;5118348;27;20147;-86
2022/01/20 05:52:20;;;;;;;5.60;1.10;;;1.90;99.90;;;;;;5102599;27;20047;-86
2022/01/20 05:54:46;;;;;;;4.60;1.33;;;1.90;99.90;;;;;;5112960;27;20082;-86
2022/01/20 05:57:12;;;;;;;9.80;1.42;;;2.00;99.90;;;;;;5121135;27;20038;-85
2022/01/20 05:59:38;;;;;;;7.28;1.90;;;2.00;99.90;;;;;;5138367;27;20035;-86
2022/01/20 06:02:12;;;;;;;5.50;1.27;;;2.00;99.90;;;;;;5097254;28;20580;-86
2022/01/20 06:04:38;;;;;;;4.10;0.98;;;2.50;99.90;;;;;;5114308;28;20031;-85
2022/01/20 06:07:04;;;;;;;9.70;1.85;;;2.20;99.90;;;;;;5096805;28;20036;-86
2022/01/20 06:09:30;;;;;;;8.73;1.48;;;2.10;99.90;;;;;;5080217;28;20054;-86
2022/01/20 06:11:55;;;;;;;3.78;2.25;;;2.20;99.90;;;;;;5080257;28;20043;-86
2022/01/20 06:14:23;;;;;;;24.15;3.28;;;2.30;99.90;;;;;;5097165;28;20047;-85
2022/01/20 06:16:49;;;;;;;4.82;1.20;;;2.30;99.90;;;;;;5116915;27;20035;-86
2022/01/20 06:19:15;;;;;;;6.10;1.38;;;2.30;99.90;;;;;;5107028;27;20586;-86
2022/01/20 06:21:41;;;;;;;5.03;1.40;;;2.30;99.90;;;;;;5100329;27;20719;-86
2022/01/20 06:24:07;;;;;;;9.48;2.00;;;2.30;99.90;;;;;;5100450;27;20035;-86
2022/01/20 06:26:32;;;;;;;3.10;1.30;;;2.20;99.90;;;;;;5117136;27;20047;-86
2022/01/20 06:28:58;;;;;;;9.27;1.95;;;2.20;99.90;;;;;;5100297;27;20497;-86
2022/01/20 06:31:23;;;;;;;1.10;1.02;;;2.10;99.90;;;;;;5100036;27;20488;-86
2022/01/20 06:33:49;;;;;;;4.15;1.38;;;2.00;99.90;;;;;;5100300;27;20511;-86
2022/01/20 06:36:14;;;;;;;3.13;0.85;;;2.00;99.90;;;;;;5099912;27;20031;-86
2022/01/20 06:38:42;;;;;;;6.47;1.17;;;2.00;99.90;;;;;;5100604;27;20027;-86
2022/01/20 06:41:07;;;;;;;10.32;2.40;;;2.10;99.90;;;;;;5111888;27;20031;-86
2022/01/20 06:43:33;;;;;;;17.73;2.78;;;2.10;99.90;;;;;;5120393;27;20129;-85
2022/01/20 06:45:59;;;;;;;11.85;2.00;;;2.10;99.90;;;;;;5137504;27;20057;-86
2022/01/20 06:48:24;;;;;;;8.38;1.67;;;2.00;99.90;;;;;;5119895;27;20548;-86
2022/01/20 06:50:50;;;;;;;4.35;1.75;;;1.80;99.90;;;;;;5120558;27;20558;-86
2022/01/20 06:53:15;;;;;;;7.28;1.83;;;1.70;99.90;;;;;;5120213;27;20039;-86
2022/01/20 06:55:41;;;;;;;4.05;1.08;;;1.60;99.90;;;;;;5114958;27;20054;-86
2022/01/20 06:58:06;;;;;;;5.97;0.73;;;1.60;99.90;;;;;;5099205;27;20027;-85
2022/01/20 07:00:32;;;;;;;2.50;0.77;;;1.50;99.90;;;;;;5120280;27;20487;-87
2022/01/20 07:02:58;;;;;;;1.50;0.82;;;1.50;99.90;;;;;;5099683;27;20744;-85
2022/01/20 07:05:23;;;;;;;2.60;0.85;;;1.60;99.90;;;;;;5127701;27;20083;-85
2022/01/20 07:07:49;;;;;;;0.70;0.60;;;1.50;99.90;;;;;;5119857;27;20050;-85
2022/01/20 07:10:19;;;;;;;0.60;0.60;;;1.60;99.90;;;;;;5119953;27;20038;-85
2022/01/20 07:12:46;;;;;;;6.43;0.63;;;1.50;99.90;;;;;;5119735;27;20515;-86
2022/01/20 07:15:14;;;;;;;1.83;0.85;;;1.50;99.90;;;;;;5119674;27;20034;-86
2022/01/20 07:17:39;;;;;;;0.57;0.57;;;1.50;99.90;;;;;;5101612;27;20495;-86
2022/01/20 07:20:06;;;;;;;2.25;0.60;;;1.50;99.90;;;;;;5099339;27;20083;-86
2022/01/20 07:22:31;;;;;;;3.15;1.45;;;1.50;99.90;;;;;;5099103;27;20042;-86
2022/01/20 07:24:57;;;;;;;0.40;0.40;;;1.50;99.90;;;;;;5116290;27;20042;-85
2022/01/20 07:27:23;;;;;;;2.90;0.68;;;1.60;99.90;;;;;;5109782;27;20038;-86
2022/01/20 07:29:48;;;;;;;1.27;0.65;;;1.50;99.90;;;;;;5104614;27;20047;-85
2022/01/20 07:32:14;;;;;;;1.52;0.73;;;1.60;99.90;;;;;;5098944;27;20512;-85
2022/01/20 07:34:40;;;;;;;2.97;2.30;;;1.70;99.90;;;;;;5098948;27;20039;-86
2022/01/20 07:37:06;;;;;;;1.45;1.13;;;1.80;99.90;;;;;;5098735;27;20031;-86
2022/01/20 07:39:32;;;;;;;2.35;1.40;;;2.00;99.90;;;;;;5115923;27;20039;-85
2022/01/20 07:41:58;;;;;;;2.75;1.00;;;2.00;99.90;;;;;;5099226;27;20095;-86
2022/01/20 07:44:23;;;;;;;4.13;1.85;;;2.00;99.90;;;;;;5098779;27;20117;-86
2022/01/20 07:46:49;;;;;;;3.90;1.00;;;2.00;99.90;;;;;;5104964;27;20047;-86
2022/01/20 07:49:15;;;;;;;1.73;1.00;;;2.00;99.90;;;;;;5119144;27;20039;-86
2022/01/20 07:51:41;;;;;;;1.83;0.88;;;2.10;99.90;;;;;;5127540;27;20155;-86
2022/01/20 07:54:06;;;;;;;5.28;1.88;;;2.10;99.90;;;;;;5119241;27;20070;-86
2022/01/20 07:56:32;;;;;;;1.17;0.55;;;2.00;99.90;;;;;;5118663;27;20034;-85
2022/01/20 07:58:58;;;;;;;9.13;1.75;;;2.00;99.90;;;;;;5118950;27;20042;-86
2022/01/20 08:01:24;;;;;;;5.28;1.40;;;2.00;99.90;;;;;;5118833;27;20030;-86
2022/01/20 08:03:52;;;;;;;4.18;1.67;;;2.00;99.90;;;;;;5118959;27;20038;-85
2022/01/20 08:06:19;;;;;;;4.07;1.10;;;2.00;99.90;;;;;;5116204;27;20034;-86
2022/01/20 08:08:45;;;;;;;2.75;1.20;;;1.90;99.90;;;;;;5098469;27;20035;-86
2022/01/20 08:11:11;;;;;;;3.83;0.98;;;1.80;99.90;;;;;;5097615;27;20487;-86
2022/01/20 08:13:36;;;;;;;4.60;0.73;;;1.70;99.90;;;;;;5098247;27;20045;-86
2022/01/20 08:16:02;;;;;;;3.42;0.90;;;1.70;99.90;;;;;;5106482;27;20482;-86
2022/01/20 08:18:28;;;;;;;6.43;1.38;;;1.70;99.90;;;;;;5118581;27;20038;-86
2022/01/20 08:20:53;;;;;;;6.47;2.05;;;1.80;99.90;;;;;;5118822;27;20042;-85
2022/01/20 08:23:19;;;;;;;5.55;1.48;;;1.90;99.90;;;;;;5118967;27;20030;-86
2022/01/20 08:25:44;;;;;;;13.18;3.17;;;2.00;99.90;;;;;;5118752;27;20168;-86
2022/01/20 08:28:11;;;;;;;0.80;0.45;;;2.00;99.90;;;;;;5118400;27;20041;-85
2022/01/20 08:30:38;;;;;;;8.68;1.00;;;2.00;99.90;;;;;;5118394;27;20035;-85
2022/01/20 08:33:03;;;;;;;1.55;1.05;;;2.00;99.90;;;;;;5118519;27;20130;-85
2022/01/20 08:35:32;;;;;;;1.48;0.98;;;1.90;99.90;;;;;;5118723;27;20038;-86
2022/01/20 08:37:59;;;;;;;5.55;2.17;;;1.90;99.90;;;;;;5118203;27;20030;-86
2022/01/20 08:40:26;;;;;;;1.80;0.88;;;1.90;99.90;;;;;;5114125;27;20391;-85
2022/01/20 08:42:52;;;;;;;8.20;1.50;;;1.90;99.90;;;;;;5117870;27;20414;-85
2022/01/20 08:45:22;;;;;;;11.77;2.03;;;2.00;99.90;;;;;;5117785;27;20407;-86
2022/01/20 08:47:57;;;;;;;5.55;1.27;;;2.10;99.90;;;;;;5101537;28;20378;-86
2022/01/20 08:50:25;;;;;;;4.85;1.10;;;2.10;99.90;;;;;;5097724;28;20433;-85
2022/01/20 08:52:51;;;;;;;1.75;0.60;;;2.10;99.90;;;;;;5097300;28;20127;-86
2022/01/20 08:55:17;;;;;;;10.13;0.90;;;2.10;99.90;;;;;;5097378;28;20031;-86
2022/01/20 08:57:44;;;;;;;11.75;1.25;;;2.20;99.90;;;;;;5097270;28;20038;-86
2022/01/20 09:00:11;;;;;;;14.23;2.63;;;2.20;99.90;;;;;;5091334;28;20480;-87
2022/01/20 09:02:36;;;;;;;1.55;0.98;;;2.30;99.90;;;;;;5102273;27;20027;-86
2022/01/20 09:05:04;;;;;;;1.30;0.77;;;2.30;99.90;;;;;;5131960;27;20522;-86
2022/01/20 09:07:29;;;;;;;2.15;1.15;;;2.30;99.90;;;;;;5117595;27;20102;-86
2022/01/20 09:09:56;;;;;;;1.55;0.63;;;2.40;99.90;;;;;;5117961;27;20042;-86
2022/01/20 09:17:47;;;;;;;10.85;2.65;;;2.60;99.90;;;;;;5134287;27;20045;-86
2022/01/20 09:20:13;;;;;;;12.30;1.80;;;2.70;99.90;;;;;;5117543;27;20034;-86
2022/01/20 09:22:38;;;;;;;6.60;1.52;;;2.80;99.90;;;;;;5121379;27;20038;-85
2022/01/20 09:25:06;;;;;;;1.95;1.02;;;2.90;99.90;;;;;;5113108;28;20767;-85
2022/01/20 09:27:32;;;;;;;20.42;2.72;;;2.80;99.90;;;;;;5104829;27;20176;-86
2022/01/20 09:29:58;;;;;;;15.27;2.55;;;3.00;99.90;;;;;;5101012;27;20099;-85
2022/01/20 09:32:26;;;;;;;19.02;2.60;;;3.10;99.90;;;;;;5100770;27;20122;-85
2022/01/20 09:34:52;;;;;;;19.10;2.35;;;3.10;99.90;;;;;;5117857;27;20043;-85
2022/01/20 09:37:18;;;;;;;14.18;2.80;;;3.20;99.90;;;;;;5117033;27;20038;-86
2022/01/20 09:39:43;;;;;;;3.15;1.13;;;3.30;99.90;;;;;;5101047;27;20035;-85
2022/01/20 09:42:09;;;;;;;10.82;1.58;;;3.40;99.90;;;;;;5100685;27;20035;-86
2022/01/20 09:44:35;;;;;;;5.68;1.88;;;3.50;99.90;;;;;;5100979;27;20035;-86
2022/01/20 09:47:00;;;;;;;17.73;2.53;;;3.50;99.90;;;;;;5100127;27;20070;-86
2022/01/20 09:49:26;;;;;;;11.48;1.80;;;3.40;99.90;;;;;;5113161;27;20039;-85
2022/01/20 09:51:51;;;;;;;5.25;1.58;;;3.20;99.90;;;;;;5117158;27;20046;-85
2022/01/20 09:54:21;;;;;;;6.00;1.48;;;3.20;99.90;;;;;;5099957;27;20381;-86
2022/01/20 09:56:47;;;;;;;9.32;2.22;;;3.20;99.90;;;;;;5095274;27;20432;-86
2022/01/20 09:59:19;;;;;;;1.95;1.17;;;3.20;99.90;;;;;;5100211;27;20073;-86
2022/01/20 10:01:49;;;;;;;1.67;0.75;;;3.20;99.90;;;;;;5100186;27;20678;-86
2022/01/20 10:04:47;;;;;;;6.53;1.30;;;3.20;99.90;;;;;;5100215;27;20062;-85
2022/01/20 10:07:18;;;;;;;11.02;1.48;;;3.20;99.90;;;;;;5110532;27;20039;-86
2022/01/20 10:09:49;;;;;;;6.03;1.65;;;3.30;99.90;;;;;;5120670;27;20483;-86
2022/01/20 10:12:18;;;;;;;3.03;0.80;;;3.30;99.90;;;;;;5117424;27;20118;-86
2022/01/20 10:14:49;;;;;;;3.10;0.93;;;3.40;99.90;;;;;;5104533;27;20031;-86
2022/01/20 10:17:19;;;;;;;8.63;1.52;;;3.30;99.90;;;;;;5116570;27;20376;-86
2022/01/20 10:20:05;;;;;;;6.78;1.35;;;3.40;99.90;;;;;;5100249;27;20043;-86
2022/01/20 10:22:55;;;;;;;6.45;1.88;;;3.50;99.90;;;;;;5100211;27;20483;-86
2022/01/20 10:25:22;;;;;;;11.35;1.33;;;3.70;99.90;;;;;;5099883;27;20399;-86
2022/01/20 10:27:52;;;;;;;8.35;1.00;;;3.70;99.90;;;;;;5099778;27;20380;-86
2022/01/20 10:30:19;;;;;;;5.93;1.80;;;3.70;99.90;;;;;;5099750;27;20042;-86
2022/01/20 10:32:47;;;;;;;8.98;1.98;;;3.70;99.90;;;;;;5099146;27;20487;-86
2022/01/20 10:35:15;;;;;;;3.88;1.73;;;3.80;99.90;;;;;;5102517;27;20137;-85
2022/01/20 10:38:13;;;;;;;4.38;0.82;;;3.80;99.90;;;;;;5115345;27;20038;-85
2022/01/20 10:40:46;;;;;;;0.82;0.63;;;3.80;99.90;;;;;;5120542;27;20078;-86
2022/01/20 10:43:21;;;;;;;7.50;1.30;;;3.80;99.90;;;;;;5120678;27;20049;-86
2022/01/20 10:45:47;;;;;;;;;;;3.90;99.90;;;;;;5117166;27;20046;-85
2022/01/20 10:48:19;;;;;;;12.55;1.92;;;4.00;99.90;;;;;;5099753;27;19915;-84
2022/01/20 10:50:44;;;;;;;8.27;2.85;;;4.30;99.90;;;;;;5109513;27;20035;-85
2022/01/20 10:53:18;;;;;;;9.65;1.98;;;5.10;99.90;;;;;;5120105;27;20049;-85
2022/01/20 10:55:43;;;;;;;9.88;1.55;;;4.50;99.90;;;;;;5120343;27;20034;-85
2022/01/20 10:58:12;;;;;;;10.10;1.95;;;4.40;99.90;;;;;;5113115;27;20035;-84
2022/01/20 11:00:47;;;;;;;17.40;1.88;;;4.30;99.90;;;;;;5106163;27;20084;-85
2022/01/20 11:03:14;;;;;;;4.72;1.02;;;4.20;99.90;;;;;;5120289;27;20095;-85
2022/01/20 11:05:40;;;;;;;14.43;1.95;;;4.10;99.90;;;;;;5120061;27;20149;-85
2022/01/20 11:08:09;;;;;;;13.38;2.17;;;4.00;99.90;;;;;;5117017;27;20038;-86
2022/01/20 11:10:35;;;;;;;12.27;1.88;;;3.90;99.90;;;;;;5099599;27;20049;-85
2022/01/20 11:13:00;;;;;;;7.32;2.20;;;3.90;99.90;;;;;;5099337;27;20031;-85
2022/01/20 11:15:29;;;;;;;10.50;2.13;;;3.80;99.90;;;;;;5116082;27;20087;-86
2022/01/20 11:17:56;;;;;;;4.88;1.30;;;3.70;99.90;;;;;;5098450;27;20031;-86
2022/01/20 11:20:25;;;;;;;10.63;1.38;;;3.70;99.90;;;;;;5099117;27;20046;-85
2022/01/20 11:23:02;;;;;;;7.95;1.27;;;3.60;99.90;;;;;;5103379;27;20046;-86
2022/01/20 11:25:31;;;;;;;11.68;2.22;;;3.50;99.90;;;;;;5114902;27;20039;-85
2022/01/20 11:28:24;;;;;;;6.97;1.98;;;3.40;99.90;;;;;;5118962;27;20070;-85
2022/01/20 11:30:57;;;;;;;7.13;1.58;;;3.30;99.90;;;;;;5117551;27;20070;-86
2022/01/20 11:33:33;;;;;;;5.68;1.60;;;3.30;99.90;;;;;;5111867;27;20073;-85
2022/01/20 11:35:59;;;;;;;9.25;1.83;;;3.20;99.90;;;;;;5119490;27;20026;-85
2022/01/20 11:38:50;;;;;;;17.77;2.65;;;3.10;99.90;;;;;;5118766;27;20038;-86
2022/01/20 11:41:35;;;;;;;17.00;2.65;;;3.20;99.90;;;;;;5115359;27;20027;-85
2022/01/20 11:44:47;;;;;;;5.35;1.13;;;3.30;99.90;;;;;;5078759;28;20511;-86
2022/01/20 11:47:43;;;;;;;6.22;1.38;;;3.20;99.90;;;;;;5101746;27;20082;-85
2022/01/20 11:50:16;;;;;;;11.60;2.47;;;3.30;99.90;;;;;;5083786;27;20045;-86
2022/01/20 11:52:55;;;;;;;9.77;2.92;;;3.60;99.90;;;;;;5096833;27;20039;-85
2022/01/20 11:55:21;;;;;;;19.92;2.33;;;3.70;99.90;;;;;;5106022;27;20039;-85
2022/01/20 11:57:46;;;;;;;8.70;2.22;;;3.80;99.90;;;;;;5117556;27;20034;-85
2022/01/20 12:00:24;;;;;;;7.18;1.15;;;3.90;99.90;;;;;;5117917;27;20037;-85
2022/01/20 12:02:51;;;;;;;11.63;2.72;;;4.10;99.90;;;;;;5095030;27;20034;-85
2022/01/20 12:05:25;;;;;;;10.80;1.95;;;4.40;99.90;;;;;;5098689;27;20039;-85
2022/01/20 12:07:52;;;;;;;13.57;2.03;;;3.90;99.90;;;;;;5096635;27;20035;-85
2022/01/20 12:10:24;;;;;;;8.88;2.05;;;3.50;99.90;;;;;;5118229;27;20701;-86
2022/01/20 12:12:50;;;;;;;12.63;1.60;;;3.10;99.90;;;;;;5097499;27;20750;-86
2022/01/20 12:15:23;;;;;;;4.47;1.08;;;3.00;99.90;;;;;;5097600;27;20090;-86
2022/01/20 12:17:50;;;;;;;4.82;1.85;;;2.90;99.90;;;;;;5096381;27;20035;-86
2022/01/20 12:20:16;;;;;;;8.30;1.25;;;2.90;99.90;;;;;;5096822;27;20035;-86
2022/01/20 12:22:53;;;;;;;7.88;1.10;;;3.00;99.90;;;;;;5111846;27;20053;-86
2022/01/20 12:25:27;;;;;;;5.78;1.70;;;3.10;99.90;;;;;;5113355;28;20088;-85
2022/01/20 12:28:11;;;;;;;7.95;1.88;;;3.10;99.90;;;;;;5096112;27;20039;-86
2022/01/20 12:30:40;;;;;;;13.05;2.13;;;3.30;99.90;;;;;;5084625;27;20457;-86
2022/01/20 12:33:11;;;;;;;11.82;2.10;;;3.30;99.90;;;;;;5092058;27;20054;-86
2022/01/20 12:35:42;;;;;;;8.82;1.67;;;3.30;99.90;;;;;;5110322;27;20031;-86
2022/01/20 12:38:17;;;;;;;6.50;1.75;;;3.30;99.90;;;;;;5104922;27;20031;-86
2022/01/20 12:40:46;;;;;;;11.50;3.08;;;3.40;99.90;;;;;;5097177;28;20407;-86
2022/01/20 12:43:11;;;;;;;7.95;1.77;;;3.60;99.90;;;;;;5096701;28;20039;-86
2022/01/20 12:45:55;;;;;;;15.90;2.30;;;3.60;99.90;;;;;;5096932;28;20484;-86
2022/01/20 12:48:20;;;;;;;3.58;1.35;;;3.70;99.90;;;;;;5110919;27;20034;-86
2022/01/20 12:50:59;;;;;;;5.03;2.03;;;3.90;99.90;;;;;;5117523;27;20099;-86
2022/01/20 12:53:32;;;;;;;7.80;1.90;;;3.90;99.90;;;;;;5111476;28;20491;-86
2022/01/20 12:55:58;;;;;;;12.13;1.85;;;4.00;99.90;;;;;;5110255;27;20045;-86
2022/01/20 12:58:23;;;;;;;4.18;1.42;;;3.80;99.90;;;;;;5108448;27;20118;-86
2022/01/20 13:01:00;;;;;;;1.17;0.70;;;3.80;99.90;;;;;;5100187;27;20035;-86
2022/01/20 13:03:40;;;;;;;6.80;1.75;;;3.90;99.90;;;;;;5100619;27;20039;-86
2022/01/20 13:06:10;;;;;;;6.03;1.30;;;3.90;99.90;;;;;;5100600;27;20062;-86
2022/01/20 13:08:42;;;;;;;14.10;1.85;;;3.90;99.90;;;;;;5103914;27;20083;-86
2022/01/20 13:11:13;;;;;;;6.50;1.65;;;3.90;99.90;;;;;;5121280;27;20047;-86
2022/01/20 13:13:39;;;;;;;8.20;1.58;;;3.90;99.90;;;;;;5120796;27;20042;-86
2022/01/20 13:16:15;;;;;;;19.60;3.42;;;3.70;99.90;;;;;;5120512;27;20041;-85
2022/01/20 13:18:54;;;;;;;11.13;1.75;;;3.50;99.90;;;;;;5126034;27;20758;-86
2022/01/20 13:21:24;;;;;;;14.60;2.35;;;3.40;99.90;;;;;;5104800;27;20026;-86
2022/01/20 13:23:56;;;;;;;8.18;1.38;;;3.30;99.90;;;;;;5135505;27;20038;-86
2022/01/20 13:26:23;;;;;;;7.38;1.10;;;3.30;99.90;;;;;;5112384;27;20043;-86
2022/01/20 13:29:05;;;;;;;4.32;1.42;;;3.30;99.90;;;;;;5112227;27;20038;-86
2022/01/20 13:31:32;;;;;;;2.80;2.10;;;3.40;99.90;;;;;;5099413;27;20027;-86
2022/01/20 13:34:15;;;;;;;6.80;1.75;;;3.50;99.90;;;;;;5099548;27;20039;-86
2022/01/20 13:36:47;;;;;;;2.20;1.20;;;3.60;99.90;;;;;;5099304;27;20027;-86
2022/01/20 13:39:34;;;;;;;10.32;1.30;;;3.70;99.90;;;;;;5099406;27;20043;-86
2022/01/20 13:42:23;;;;;;;6.32;1.52;;;3.70;99.90;;;;;;5098666;27;20875;-85
2022/01/20 13:45:13;;;;;;;7.30;1.55;;;3.80;99.90;;;;;;5089791;27;20519;-86
2022/01/20 13:47:59;;;;;;;10.10;2.10;;;3.70;99.90;;;;;;5097648;27;20035;-86
2022/01/20 13:50:27;;;;;;;15.27;3.53;;;3.70;99.90;;;;;;5096114;28;20124;-86
2022/01/20 13:52:54;;;;;;;11.02;1.98;;;3.80;99.90;;;;;;5102407;27;20039;-86
2022/01/20 13:55:36;;;;;;;10.32;1.63;;;4.40;99.90;;;;;;5098655;27;20083;-86
2022/01/20 13:58:05;;;;;;;6.38;1.15;;;3.60;99.90;;;;;;5079373;28;20063;-86
2022/01/20 14:00:35;;;;;;;18.13;3.28;;;3.70;99.90;;;;;;5087768;27;20118;-86
2022/01/20 14:03:06;;;;;;;11.07;1.83;;;3.80;99.90;;;;;;5102319;27;20046;-86
2022/01/20 14:05:33;;;;;;;2.70;0.80;;;3.90;99.90;;;;;;5115364;27;20027;-86
2022/01/20 14:08:01;;;;;;;12.48;1.73;;;3.90;99.90;;;;;;5101198;27;20673;-86
2022/01/20 14:10:27;;;;;;;1.73;0.95;;;3.90;99.90;;;;;;5108641;27;20043;-85